Time;durP1;ratioP1;P1;durP2;ratioP2;P2;SDS_P1;SDS_P2;PMS_P1;PMS_P2;Temp;Humidity;BMP_temperature;BMP_pressure;BME280_temperature;BME280_humidity;BME280_pressure;Samples;Min_cycle;Max_cycle;Signal;HPM_P1;HPM_P2
2023/05/21 00:02:03;;;;;;;11.90;10.13;;;14.20;84.10;;;;;;5010351;28;20487;-54
2023/05/21 00:04:30;;;;;;;10.93;9.77;;;14.10;85.10;;;;;;5011375;28;20455;-54
2023/05/21 00:06:57;;;;;;;12.70;10.87;;;14.10;82.10;;;;;;5010845;28;20478;-54
2023/05/21 00:09:24;;;;;;;13.07;9.70;;;14.10;80.70;;;;;;5011401;28;20450;-54
2023/05/21 00:11:52;;;;;;;10.53;9.50;;;14.10;81.20;;;;;;5010365;28;20480;-55
2023/05/21 00:14:18;;;;;;;10.97;9.70;;;14.10;80.20;;;;;;5007342;28;20460;-54
2023/05/21 00:16:45;;;;;;;10.60;9.50;;;14.10;79.80;;;;;;5008007;28;20499;-54
2023/05/21 00:19:12;;;;;;;12.97;9.60;;;14.00;81.50;;;;;;4991419;28;20460;-52
2023/05/21 00:21:39;;;;;;;13.30;10.60;;;14.00;79.50;;;;;;5001671;28;20439;-53
2023/05/21 00:24:06;;;;;;;11.70;9.47;;;14.00;80.50;;;;;;5010572;28;20451;-53
2023/05/21 00:26:33;;;;;;;11.40;10.23;;;14.00;81.10;;;;;;5010055;28;20929;-53
2023/05/21 00:29:01;;;;;;;9.13;8.37;;;13.90;82.70;;;;;;5009141;28;21005;-52
2023/05/21 00:31:27;;;;;;;10.30;9.30;;;13.90;81.30;;;;;;5002506;28;20506;-52
2023/05/21 00:33:54;;;;;;;10.77;9.40;;;13.90;81.00;;;;;;5009500;28;20526;-53
2023/05/21 00:36:22;;;;;;;11.60;10.13;;;13.80;78.70;;;;;;5010357;28;20495;-53
2023/05/21 00:38:49;;;;;;;13.53;9.77;;;13.80;76.80;;;;;;5011724;28;20463;-53
2023/05/21 00:41:16;;;;;;;12.00;10.77;;;13.70;76.20;;;;;;5009824;28;20570;-53
2023/05/21 00:43:43;;;;;;;12.20;10.07;;;13.70;77.40;;;;;;5011475;28;20860;-53
2023/05/21 00:46:15;;;;;;;15.33;10.93;;;13.60;77.70;;;;;;5007977;28;20863;-53
2023/05/21 00:48:42;;;;;;;10.73;9.73;;;13.60;76.10;;;;;;5003766;28;20957;-52
2023/05/21 00:51:09;;;;;;;10.13;9.13;;;13.60;75.90;;;;;;5011062;28;20451;-52
2023/05/21 00:53:36;;;;;;;12.37;10.10;;;13.50;75.30;;;;;;5014710;28;20486;-53
2023/05/21 00:56:03;;;;;;;15.67;10.23;;;13.50;73.80;;;;;;5013843;28;20519;-53
2023/05/21 00:58:32;;;;;;;12.60;9.17;;;13.40;71.20;;;;;;5014375;28;20502;-52
2023/05/21 01:01:02;;;;;;;10.00;9.00;;;13.30;71.60;;;;;;5014932;28;20530;-54
2023/05/21 01:03:37;;;;;;;11.00;9.50;;;13.30;70.40;;;;;;5011757;28;20526;-53
2023/05/21 01:06:04;;;;;;;11.53;10.20;;;13.30;68.70;;;;;;5012894;28;20463;-53
2023/05/21 01:08:33;;;;;;;13.10;10.47;;;13.20;68.10;;;;;;5013297;28;20448;-52
2023/05/21 01:11:01;;;;;;;11.10;10.00;;;13.20;69.10;;;;;;5012626;28;20460;-53
2023/05/21 01:13:28;;;;;;;12.27;10.57;;;13.10;66.10;;;;;;5014142;28;20522;-52
2023/05/21 01:15:56;;;;;;;11.90;9.67;;;13.10;67.90;;;;;;5013694;28;20475;-53
2023/05/21 01:18:23;;;;;;;10.43;9.50;;;13.10;66.70;;;;;;4999772;28;20484;-52
2023/05/21 01:20:52;;;;;;;13.00;9.70;;;13.00;67.40;;;;;;5007592;28;20487;-53
2023/05/21 01:23:20;;;;;;;11.27;9.30;;;12.90;65.40;;;;;;5006950;28;20456;-52
2023/05/21 01:25:47;;;;;;;11.80;9.80;;;12.90;66.20;;;;;;5011794;28;20539;-53
2023/05/21 01:28:14;;;;;;;11.10;10.00;;;12.90;64.30;;;;;;5012731;28;20534;-52
2023/05/21 01:30:42;;;;;;;13.60;9.33;;;12.80;64.40;;;;;;5013423;28;20467;-52
2023/05/21 01:33:15;;;;;;;13.43;9.60;;;12.80;64.40;;;;;;5013783;28;20890;-53
2023/05/21 01:35:47;;;;;;;13.33;9.70;;;12.80;61.20;;;;;;5005163;28;20555;-52
2023/05/21 01:38:20;;;;;;;11.07;9.80;;;12.80;61.20;;;;;;5010702;28;20475;-53
2023/05/21 01:40:54;;;;;;;10.47;9.37;;;12.80;61.60;;;;;;5008940;28;20484;-52
2023/05/21 01:43:23;;;;;;;11.90;9.77;;;12.80;59.80;;;;;;5009520;28;20466;-52
2023/05/21 01:46:12;;;;;;;10.73;9.77;;;12.80;58.80;;;;;;5012764;28;20475;-54
2023/05/21 01:48:39;;;;;;;10.73;9.73;;;12.70;59.20;;;;;;5008245;28;21041;-54
2023/05/21 01:51:06;;;;;;;15.43;10.30;;;12.80;55.10;;;;;;5015886;28;20878;-53
2023/05/21 01:53:33;;;;;;;12.77;10.50;;;12.80;54.70;;;;;;5011073;28;20550;-52
2023/05/21 01:56:01;;;;;;;12.80;10.23;;;12.80;53.70;;;;;;5003626;28;20564;-52
2023/05/21 01:58:28;;;;;;;15.40;11.43;;;12.80;51.90;;;;;;5006991;28;20455;-53
2023/05/21 02:00:55;;;;;;;13.07;11.57;;;12.80;51.30;;;;;;5011759;28;21065;-52
2023/05/21 02:03:25;;;;;;;11.57;10.47;;;12.80;50.50;;;;;;5010841;28;20498;-53
2023/05/21 02:05:51;;;;;;;16.63;10.40;;;12.80;50.10;;;;;;5005076;28;20464;-52
2023/05/21 02:08:19;;;;;;;17.13;12.43;;;12.80;49.20;;;;;;5012486;28;20563;-52
2023/05/21 02:10:45;;;;;;;12.73;11.53;;;12.90;48.20;;;;;;5010469;28;20873;-53
2023/05/21 02:13:13;;;;;;;15.13;11.67;;;12.80;46.50;;;;;;5013192;28;20482;-52
2023/05/21 02:15:40;;;;;;;13.70;12.00;;;12.80;45.50;;;;;;5011405;28;20542;-53
2023/05/21 02:18:07;;;;;;;12.63;11.33;;;12.90;43.50;;;;;;5013996;28;20558;-52
2023/05/21 02:20:33;;;;;;;14.67;12.37;;;12.80;43.00;;;;;;5032484;28;20480;-53
2023/05/21 02:23:00;;;;;;;14.13;12.50;;;12.90;41.60;;;;;;5026704;28;20475;-53
2023/05/21 02:25:27;;;;;;;12.40;11.20;;;12.90;41.70;;;;;;5020163;28;20930;-52
2023/05/21 02:27:55;;;;;;;12.50;11.40;;;12.90;41.70;;;;;;5015675;28;20574;-53
2023/05/21 02:30:23;;;;;;;13.03;11.03;;;12.80;41.60;;;;;;5013100;28;20446;-53
2023/05/21 02:32:49;;;;;;;14.00;11.93;;;12.80;41.60;;;;;;5012141;28;20546;-52
2023/05/21 02:35:16;;;;;;;14.83;12.03;;;12.80;39.70;;;;;;5012372;28;20938;-52
2023/05/21 02:37:43;;;;;;;13.67;12.10;;;12.90;38.40;;;;;;5013229;28;20558;-53
2023/05/21 02:40:10;;;;;;;18.93;13.60;;;12.80;38.30;;;;;;5008861;28;20530;-52
2023/05/21 02:42:38;;;;;;;12.50;11.30;;;12.80;38.50;;;;;;5007590;28;20485;-53
2023/05/21 02:45:05;;;;;;;13.10;11.70;;;12.80;37.60;;;;;;5021304;28;20510;-52
2023/05/21 02:47:33;;;;;;;13.30;11.87;;;12.80;37.90;;;;;;5022687;28;20500;-55
2023/05/21 02:50:01;;;;;;;16.13;11.73;;;12.70;37.90;;;;;;5023974;28;20487;-54
2023/05/21 02:52:28;;;;;;;13.00;11.07;;;12.70;39.30;;;;;;5027425;28;20459;-53
2023/05/21 02:54:54;;;;;;;13.63;12.23;;;12.70;38.30;;;;;;5026525;28;20444;-53
2023/05/21 02:57:21;;;;;;;14.10;11.97;;;12.70;36.90;;;;;;5026515;28;20483;-52
2023/05/21 02:59:47;;;;;;;14.73;13.33;;;12.70;34.20;;;;;;5027530;28;20459;-53
2023/05/21 03:02:14;;;;;;;13.73;12.10;;;12.70;33.30;;;;;;5023461;28;20515;-54
2023/05/21 03:04:44;;;;;;;16.13;13.70;;;12.70;31.90;;;;;;5011429;28;20525;-52
2023/05/21 03:07:12;;;;;;;15.60;14.00;;;12.70;32.50;;;;;;5010580;28;20487;-53
2023/05/21 03:09:39;;;;;;;15.13;12.37;;;12.70;31.80;;;;;;5012289;28;20448;-52
2023/05/21 03:12:06;;;;;;;14.43;13.00;;;12.70;29.50;;;;;;5004793;28;20523;-52
2023/05/21 03:14:32;;;;;;;14.00;12.60;;;12.70;29.40;;;;;;5009119;28;20636;-52
2023/05/21 03:16:59;;;;;;;23.30;13.17;;;12.70;27.70;;;;;;5010912;28;20526;-52
2023/05/21 03:19:25;;;;;;;17.10;13.87;;;12.70;26.30;;;;;;5011122;28;20531;-53
2023/05/21 03:21:55;;;;;;;28.13;13.17;;;12.70;25.40;;;;;;5009780;28;20570;-53
2023/05/21 03:24:21;;;;;;;17.67;14.30;;;12.70;23.10;;;;;;5011871;28;20842;-52
2023/05/21 03:26:49;;;;;;;16.33;13.07;;;12.70;22.80;;;;;;5010033;28;20565;-53
2023/05/21 03:29:15;;;;;;;14.70;13.23;;;12.70;23.30;;;;;;5011788;28;20547;-53
2023/05/21 03:31:42;;;;;;;18.30;13.47;;;12.70;22.50;;;;;;5007742;28;21029;-52
2023/05/21 03:34:08;;;;;;;15.50;13.90;;;12.70;20.40;;;;;;5010581;28;20540;-53
2023/05/21 03:36:35;;;;;;;16.47;13.73;;;12.70;73.20;;;;;;5006920;28;20567;-53
2023/05/21 03:39:03;;;;;;;15.40;13.27;;;12.80;80.80;;;;;;5009057;28;20448;-53
2023/05/21 03:41:30;;;;;;;15.00;13.60;;;12.80;80.30;;;;;;5010707;28;20561;-52
2023/05/21 03:43:56;;;;;;;16.27;14.57;;;12.80;83.40;;;;;;5010712;28;20543;-52
2023/05/21 03:46:23;;;;;;;15.97;14.50;;;12.80;91.10;;;;;;5013529;28;20529;-53
2023/05/21 03:48:49;;;;;;;16.27;14.50;;;12.80;89.30;;;;;;5014005;28;20507;-52
2023/05/21 03:51:16;;;;;;;15.87;13.67;;;12.80;99.20;;;;;;5005945;28;20536;-53
2023/05/21 03:53:43;;;;;;;16.47;14.77;;;12.90;99.90;;;;;;5008405;28;20472;-52
2023/05/21 03:56:11;;;;;;;16.50;14.50;;;12.90;99.90;;;;;;5011138;28;20928;-53
2023/05/21 03:58:37;;;;;;;17.77;14.60;;;12.90;99.90;;;;;;5009289;28;20567;-53
2023/05/21 04:01:04;;;;;;;15.47;13.97;;;13.00;99.90;;;;;;5009616;28;21001;-53
2023/05/21 04:03:31;;;;;;;15.90;14.17;;;13.00;99.90;;;;;;5010013;28;20491;-52
2023/05/21 04:05:58;;;;;;;17.63;15.57;;;13.00;99.90;;;;;;5003259;28;20468;-53
2023/05/21 04:08:25;;;;;;;16.97;15.27;;;13.10;99.90;;;;;;5008651;28;20539;-52
2023/05/21 04:10:51;;;;;;;15.15;13.68;;;13.10;99.90;;;;;;5007879;28;20466;-54
2023/05/21 04:13:19;;;;;;;16.50;14.30;;;13.10;99.90;;;;;;5006118;28;20300;-54
2023/05/21 04:15:46;;;;;;;17.33;15.43;;;13.10;99.90;;;;;;5009532;28;20527;-53
2023/05/21 04:18:14;;;;;;;14.40;13.00;;;13.10;99.90;;;;;;5009797;28;20906;-53
2023/05/21 04:20:40;;;;;;;15.83;14.23;;;13.20;99.90;;;;;;5011421;28;20834;-54
2023/05/21 04:23:07;;;;;;;24.13;14.37;;;13.20;99.90;;;;;;5011299;28;20484;-50
2023/05/21 04:25:34;;;;;;;19.87;14.47;;;13.30;99.90;;;;;;5012737;28;20454;-51
2023/05/21 04:28:00;;;;;;;18.63;14.00;;;13.30;99.90;;;;;;5012650;28;21056;-52
2023/05/21 04:30:28;;;;;;;16.40;14.10;;;13.30;99.90;;;;;;5014707;28;20451;-51
2023/05/21 04:32:56;;;;;;;16.27;14.40;;;13.40;99.90;;;;;;5005584;28;20554;-51
2023/05/21 04:35:23;;;;;;;15.97;14.43;;;13.50;99.90;;;;;;5014864;28;20452;-51
2023/05/21 04:37:50;;;;;;;16.70;13.07;;;13.60;99.90;;;;;;5015707;28;20522;-51
2023/05/21 04:40:23;;;;;;;14.80;13.20;;;13.60;99.90;;;;;;5015076;28;20462;-51
2023/05/21 04:42:50;;;;;;;14.90;13.10;;;13.70;99.90;;;;;;5015551;28;20523;-52
2023/05/21 04:45:17;;;;;;;21.57;14.70;;;13.80;99.90;;;;;;5010129;28;20467;-51
2023/05/21 04:47:45;;;;;;;16.73;14.70;;;13.90;99.90;;;;;;5012563;28;20491;-51
2023/05/21 04:50:11;;;;;;;16.47;14.10;;;13.90;99.90;;;;;;5012965;28;20495;-51
2023/05/21 04:52:39;;;;;;;15.87;13.70;;;14.00;99.90;;;;;;5014508;28;20553;-52
2023/05/21 04:55:07;;;;;;;16.43;14.57;;;14.10;99.90;;;;;;5014064;28;20444;-53
2023/05/21 04:57:34;;;;;;;16.50;14.47;;;14.20;99.90;;;;;;5015128;28;20895;-51
2023/05/21 05:00:02;;;;;;;19.00;15.43;;;14.30;99.90;;;;;;5014326;28;20459;-52
2023/05/21 05:02:29;;;;;;;16.50;14.13;;;14.40;99.90;;;;;;5008525;28;21013;-52
2023/05/21 05:04:58;;;;;;;15.87;14.27;;;14.50;99.90;;;;;;5013450;28;20505;-52
2023/05/21 05:07:25;;;;;;;16.73;14.27;;;14.60;99.90;;;;;;5010182;28;20543;-52
2023/05/21 05:09:52;;;;;;;16.50;14.80;;;14.70;99.90;;;;;;4996210;28;20483;-51
2023/05/21 05:12:18;;;;;;;16.20;14.67;;;14.80;99.90;;;;;;4995067;28;20480;-53
2023/05/21 05:14:45;;;;;;;15.83;13.97;;;14.90;99.90;;;;;;5012612;28;20559;-52
2023/05/21 05:17:14;;;;;;;17.00;15.23;;;15.00;99.90;;;;;;5031169;28;20965;-51
2023/05/21 05:19:40;;;;;;;15.83;14.33;;;15.10;99.90;;;;;;5023088;28;20470;-51
2023/05/21 05:22:08;;;;;;;17.87;15.23;;;15.20;91.10;;;;;;5017114;28;20861;-51
2023/05/21 05:24:35;;;;;;;22.97;15.27;;;15.30;22.90;;;;;;5011649;28;20550;-51
2023/05/21 05:27:01;;;;;;;15.43;14.00;;;15.50;24.40;;;;;;5013996;28;20986;-51
2023/05/21 05:29:28;;;;;;;16.00;14.30;;;15.50;26.90;;;;;;5012639;28;20562;-51
2023/05/21 05:31:54;;;;;;;18.23;13.70;;;15.60;28.90;;;;;;5014537;28;20543;-51
2023/05/21 05:34:21;;;;;;;17.73;15.93;;;15.80;29.60;;;;;;5011271;28;20527;-51
2023/05/21 05:36:47;;;;;;;16.93;14.80;;;15.90;32.50;;;;;;5012561;28;20518;-51
2023/05/21 05:39:15;;;;;;;16.03;14.07;;;16.00;41.30;;;;;;5012529;28;20917;-52
2023/05/21 05:41:42;;;;;;;18.13;15.53;;;16.10;44.30;;;;;;5012264;28;20571;-52
2023/05/21 05:44:08;;;;;;;20.50;13.83;;;16.20;45.60;;;;;;5011667;28;20658;-52
2023/05/21 05:46:35;;;;;;;16.40;14.80;;;16.30;52.00;;;;;;5012940;28;20994;-53
2023/05/21 05:49:01;;;;;;;18.03;16.10;;;16.50;60.20;;;;;;5014418;28;21016;-51
2023/05/21 05:51:28;;;;;;;17.77;15.53;;;16.60;72.90;;;;;;5010826;28;20488;-52
2023/05/21 05:53:55;;;;;;;23.13;16.30;;;16.70;73.50;;;;;;5012044;28;20484;-52
2023/05/21 05:56:23;;;;;;;16.70;15.00;;;16.90;80.30;;;;;;5011052;28;20509;-51
2023/05/21 05:58:49;;;;;;;17.90;15.40;;;16.90;84.00;;;;;;5012883;28;20905;-51
2023/05/21 06:01:16;;;;;;;20.00;16.33;;;17.10;82.10;;;;;;5013535;28;20535;-51
2023/05/21 06:03:42;;;;;;;18.33;16.43;;;17.20;98.70;;;;;;5012968;28;20452;-52
2023/05/21 06:06:09;;;;;;;18.93;16.90;;;17.30;99.90;;;;;;5013612;28;20932;-51
2023/05/21 06:08:36;;;;;;;18.40;16.60;;;17.30;99.90;;;;;;5009484;28;20887;-51
2023/05/21 06:11:03;;;;;;;17.43;15.63;;;17.40;99.90;;;;;;5010451;28;20558;-52
2023/05/21 06:13:31;;;;;;;18.77;16.80;;;17.50;99.90;;;;;;5011866;28;20531;-51
2023/05/21 06:15:58;;;;;;;22.63;16.50;;;17.50;99.90;;;;;;5013520;28;20448;-51
2023/05/21 06:18:24;;;;;;;19.93;15.47;;;17.60;99.90;;;;;;5003628;28;20492;-51
2023/05/21 06:20:51;;;;;;;18.73;15.47;;;17.70;99.90;;;;;;4997288;28;20490;-51
2023/05/21 06:23:17;;;;;;;15.50;13.90;;;17.70;99.90;;;;;;5013218;28;20519;-52
2023/05/21 06:25:44;;;;;;;20.87;16.50;;;17.90;99.90;;;;;;5008582;28;20567;-51
2023/05/21 06:28:10;;;;;;;19.73;15.30;;;18.00;99.90;;;;;;5010823;28;20463;-51
2023/05/21 06:30:38;;;;;;;19.20;15.90;;;18.10;99.90;;;;;;5012357;28;20483;-52
2023/05/21 06:33:05;;;;;;;28.87;15.70;;;18.20;99.90;;;;;;5013204;28;21033;-51
2023/05/21 06:35:35;;;;;;;16.73;15.00;;;18.30;99.90;;;;;;5012047;28;20546;-51
2023/05/21 06:38:02;;;;;;;21.20;16.33;;;18.30;99.90;;;;;;5012453;28;20464;-51
2023/05/21 06:40:28;;;;;;;16.97;15.27;;;18.40;99.90;;;;;;5013340;28;20538;-51
2023/05/21 06:42:55;;;;;;;21.20;16.67;;;18.40;99.90;;;;;;5009532;28;21053;-50
2023/05/21 06:45:22;;;;;;;18.67;14.90;;;18.40;99.90;;;;;;5010290;28;20954;-52
2023/05/21 06:47:50;;;;;;;22.47;15.80;;;18.50;99.90;;;;;;5011092;28;20479;-52
2023/05/21 06:50:16;;;;;;;18.63;15.13;;;18.50;99.90;;;;;;5012548;28;20520;-52
2023/05/21 06:52:43;;;;;;;17.93;15.50;;;18.60;99.90;;;;;;5010891;28;20460;-51
2023/05/21 06:55:09;;;;;;;19.60;14.97;;;18.60;99.90;;;;;;5011954;28;20546;-52
2023/05/21 06:57:37;;;;;;;28.43;15.03;;;18.60;99.90;;;;;;5011850;28;20888;-50
2023/05/21 07:00:04;;;;;;;16.87;14.80;;;18.70;99.90;;;;;;5010030;28;20487;-51
2023/05/21 07:02:31;;;;;;;20.53;13.50;;;18.70;99.90;;;;;;5010933;28;20484;-52
2023/05/21 07:04:59;;;;;;;16.40;14.17;;;18.80;99.90;;;;;;5008313;28;20448;-52
2023/05/21 07:07:26;;;;;;;17.10;14.53;;;18.80;99.90;;;;;;5002540;28;20489;-52
2023/05/21 07:09:52;;;;;;;18.00;13.17;;;18.80;99.90;;;;;;5010706;28;20951;-53
2023/05/21 07:12:19;;;;;;;14.90;13.47;;;18.90;99.90;;;;;;5011633;28;20876;-52
2023/05/21 07:14:45;;;;;;;16.00;14.40;;;19.00;99.90;;;;;;5013473;28;20473;-52
2023/05/21 07:17:12;;;;;;;21.10;14.43;;;19.10;99.90;;;;;;5009421;28;20511;-52
2023/05/21 07:19:38;;;;;;;24.77;14.00;;;19.10;99.90;;;;;;5010577;28;20531;-52
2023/05/21 07:22:06;;;;;;;15.50;12.90;;;19.20;99.90;;;;;;5009932;28;20515;-52
2023/05/21 07:24:33;;;;;;;17.23;13.23;;;19.30;99.90;;;;;;5011555;28;20531;-53
2023/05/21 07:26:59;;;;;;;17.47;13.77;;;19.30;99.90;;;;;;5011656;28;20915;-51
2023/05/21 07:29:26;;;;;;;13.27;11.90;;;19.40;99.90;;;;;;5011421;28;20542;-52
2023/05/21 07:31:52;;;;;;;16.57;13.33;;;19.50;99.90;;;;;;5011402;28;20543;-52
2023/05/21 07:34:19;;;;;;;27.13;14.57;;;19.60;99.90;;;;;;5008000;28;21028;-51
2023/05/21 07:36:45;;;;;;;16.70;13.00;;;19.70;99.90;;;;;;5004614;28;20499;-50
2023/05/21 07:39:13;;;;;;;13.83;12.30;;;19.80;99.90;;;;;;5010397;28;21006;-50
2023/05/21 07:41:40;;;;;;;12.47;11.30;;;19.90;99.90;;;;;;5011152;28;21020;-51
2023/05/21 07:44:06;;;;;;;12.43;11.13;;;19.90;99.90;;;;;;5012267;28;20483;-50
2023/05/21 07:46:33;;;;;;;19.23;13.27;;;20.00;99.90;;;;;;5011097;28;20530;-50
2023/05/21 07:48:59;;;;;;;14.57;12.10;;;20.00;99.90;;;;;;5012254;28;20514;-51
2023/05/21 07:51:26;;;;;;;13.80;12.17;;;20.00;99.90;;;;;;5008836;28;20835;-49
2023/05/21 07:53:53;;;;;;;19.20;12.33;;;20.00;99.90;;;;;;4994575;28;20544;-50
2023/05/21 07:56:21;;;;;;;12.53;10.90;;;20.10;99.90;;;;;;4991047;28;20556;-50
2023/05/21 07:58:48;;;;;;;13.17;11.90;;;20.00;99.90;;;;;;4993437;28;20829;-49
2023/05/21 08:01:15;;;;;;;17.17;11.70;;;20.10;99.90;;;;;;4993045;28;20483;-50
2023/05/21 08:03:41;;;;;;;12.67;10.80;;;20.20;99.90;;;;;;4999242;28;20574;-52
2023/05/21 08:06:08;;;;;;;13.33;11.67;;;20.20;99.90;;;;;;5013807;28;20502;-53
2023/05/21 08:08:34;;;;;;;12.47;11.10;;;20.30;20.10;;;;;;5014100;28;21005;-52
2023/05/21 08:11:01;;;;;;;16.00;10.77;;;20.50;25.20;;;;;;5013544;28;20486;-52
2023/05/21 08:13:29;;;;;;;16.73;11.40;;;20.70;41.20;;;;;;5014488;28;20505;-54
2023/05/21 08:15:55;;;;;;;11.70;10.50;;;20.90;81.10;;;;;;5015504;28;20839;-52
2023/05/21 08:18:24;;;;;;;14.10;10.43;;;21.20;96.60;;;;;;5014714;28;20444;-53
2023/05/21 08:20:50;;;;;;;17.20;10.43;;;21.30;99.90;;;;;;5014651;28;21145;-52
2023/05/21 08:23:18;;;;;;;15.40;9.20;;;21.40;99.90;;;;;;5012235;28;20570;-52
2023/05/21 08:25:44;;;;;;;30.10;10.80;;;21.60;99.90;;;;;;5013555;28;20519;-52
2023/05/21 08:28:11;;;;;;;11.40;9.93;;;21.90;31.20;;;;;;5013144;28;20574;-52
2023/05/21 08:30:40;;;;;;;10.90;10.00;;;22.00;32.20;;;;;;5015321;28;21055;-52
2023/05/21 08:33:06;;;;;;;10.17;9.27;;;22.10;60.60;;;;;;5014115;28;20456;-52
2023/05/21 08:35:33;;;;;;;9.77;8.77;;;22.20;81.70;;;;;;5005576;28;20465;-53
2023/05/21 08:37:59;;;;;;;16.70;9.70;;;22.20;90.00;;;;;;5014453;28;20558;-52
2023/05/21 08:40:26;;;;;;;22.43;9.40;;;22.30;92.20;;;;;;5012512;28;20463;-53
2023/05/21 08:42:53;;;;;;;11.97;9.07;;;22.20;99.90;;;;;;5005049;28;21105;-52
2023/05/21 08:45:21;;;;;;;11.50;8.13;;;22.50;99.90;;;;;;5012779;28;20535;-53
2023/05/21 08:47:54;;;;;;;9.27;8.37;;;22.70;99.90;;;;;;5014341;28;20467;-52
2023/05/21 08:50:21;;;;;;;10.50;7.90;;;22.80;99.90;;;;;;5014402;28;20480;-53
2023/05/21 08:52:49;;;;;;;16.90;9.67;;;23.10;99.90;;;;;;5014480;28;20958;-53
2023/05/21 08:55:16;;;;;;;14.33;8.20;;;22.80;99.90;;;;;;5014932;28;20957;-54
2023/05/21 08:57:44;;;;;;;14.13;8.23;;;22.80;99.90;;;;;;5011745;28;20522;-53
2023/05/21 09:00:11;;;;;;;11.77;8.07;;;22.80;99.90;;;;;;5010566;28;20559;-54
2023/05/21 09:02:42;;;;;;;9.33;7.40;;;22.80;99.90;;;;;;5012613;28;20579;-54
2023/05/21 09:05:11;;;;;;;11.00;8.50;;;23.00;99.90;;;;;;5010334;28;20514;-51
2023/05/21 09:07:43;;;;;;;10.03;8.10;;;23.20;99.90;;;;;;5014760;28;20471;-53
2023/05/21 09:10:13;;;;;;;13.60;8.27;;;23.40;99.90;;;;;;5013586;28;20463;-53
2023/05/21 09:12:40;;;;;;;9.53;7.67;;;23.10;99.90;;;;;;5014586;28;20531;-53
2023/05/21 09:15:07;;;;;;;20.47;8.00;;;23.40;99.90;;;;;;5013484;28;20495;-53
2023/05/21 09:17:34;;;;;;;10.97;8.20;;;23.60;99.90;;;;;;5004165;28;20483;-53
2023/05/21 09:20:08;;;;;;;9.27;8.37;;;23.50;99.90;;;;;;5012965;28;20451;-53
2023/05/21 09:22:36;;;;;;;8.47;7.57;;;23.90;99.90;;;;;;5013327;28;20479;-53
2023/05/21 09:25:06;;;;;;;9.73;7.60;;;23.50;99.90;;;;;;5014313;28;20540;-53
2023/05/21 09:27:33;;;;;;;8.90;7.17;;;23.50;99.90;;;;;;5013375;28;20479;-53
2023/05/21 09:29:59;;;;;;;12.03;7.10;;;23.60;99.90;;;;;;5014321;28;20927;-53
2023/05/21 09:32:26;;;;;;;9.20;7.33;;;24.00;99.90;;;;;;5012937;28;20494;-53
2023/05/21 09:34:52;;;;;;;8.70;7.80;;;24.50;99.90;;;;;;5006598;28;20555;-52
2023/05/21 09:37:19;;;;;;;18.93;8.00;;;24.80;99.90;;;;;;5011428;28;20515;-53
2023/05/21 09:39:48;;;;;;;8.10;6.83;;;25.20;99.90;;;;;;5011687;28;20574;-53
2023/05/21 09:42:15;;;;;;;7.00;6.30;;;24.90;99.90;;;;;;5013400;28;20492;-53
2023/05/21 09:44:43;;;;;;;6.70;6.10;;;24.70;99.90;;;;;;5003273;28;20478;-53
2023/05/21 09:47:09;;;;;;;13.63;7.57;;;25.00;99.90;;;;;;5011897;28;20511;-52
2023/05/21 09:49:37;;;;;;;11.53;6.30;;;25.20;99.90;;;;;;5009946;28;20460;-54
2023/05/21 09:52:04;;;;;;;11.10;6.60;;;24.60;99.90;;;;;;5011864;28;20554;-53
2023/05/21 09:54:32;;;;;;;7.83;7.07;;;25.30;99.90;;;;;;5013649;28;20464;-53
2023/05/21 09:57:01;;;;;;;24.03;7.60;;;25.50;99.90;;;;;;5012793;28;20989;-53
2023/05/21 09:59:36;;;;;;;6.67;6.17;;;25.80;99.90;;;;;;5013075;28;20962;-53
2023/05/21 10:02:02;;;;;;;11.07;6.47;;;25.60;99.90;;;;;;5008975;28;20542;-53
2023/05/21 10:04:30;;;;;;;12.43;6.80;;;25.10;99.90;;;;;;5012301;28;20545;-53
2023/05/21 10:06:59;;;;;;;11.00;6.67;;;26.30;99.90;;;;;;5011870;28;20974;-53
2023/05/21 10:09:27;;;;;;;10.50;6.00;;;26.80;99.90;;;;;;5012988;28;20467;-53
2023/05/21 10:11:54;;;;;;;6.33;5.80;;;26.30;99.90;;;;;;5012814;28;20547;-55
2023/05/21 10:14:27;;;;;;;11.60;6.23;;;26.10;99.90;;;;;;5012850;28;20482;-53
2023/05/21 10:16:55;;;;;;;6.80;6.10;;;26.60;99.90;;;;;;5010818;28;20519;-53
2023/05/21 10:19:23;;;;;;;12.97;5.77;;;27.10;99.90;;;;;;5009633;28;20490;-53
2023/05/21 10:21:51;;;;;;;7.20;6.57;;;26.90;99.90;;;;;;5011553;28;21005;-53
2023/05/21 10:24:18;;;;;;;13.20;6.67;;;26.70;99.90;;;;;;5011077;28;20926;-54
2023/05/21 10:26:46;;;;;;;11.17;6.60;;;27.10;99.90;;;;;;5012762;28;21052;-53
2023/05/21 10:29:15;;;;;;;9.53;6.83;;;27.80;99.90;;;;;;5011945;28;20502;-54
2023/05/21 10:31:45;;;;;;;6.90;6.30;;;28.00;99.90;;;;;;5012058;28;20471;-53
2023/05/21 10:34:13;;;;;;;18.07;6.03;;;28.70;99.90;;;;;;5012103;28;20464;-53
2023/05/21 10:36:40;;;;;;;7.93;6.20;;;28.90;99.90;;;;;;5010048;28;20570;-53
2023/05/21 10:39:08;;;;;;;10.50;6.33;;;28.20;99.90;;;;;;5008626;28;20551;-53
2023/05/21 10:41:42;;;;;;;8.50;5.70;;;28.70;99.90;;;;;;5012165;28;20531;-53
2023/05/21 10:44:21;;;;;;;7.27;5.80;;;28.60;99.90;;;;;;5011534;28;20549;-55
2023/05/21 10:47:13;;;;;;;7.20;5.87;;;28.40;99.90;;;;;;5011959;28;20574;-53
2023/05/21 10:49:57;;;;;;;8.37;6.40;;;28.50;99.90;;;;;;5012981;28;20875;-53
2023/05/21 10:52:46;;;;;;;11.53;5.70;;;27.80;99.90;;;;;;5004168;28;20536;-53
2023/05/21 10:55:23;;;;;;;16.27;6.50;;;27.30;99.90;;;;;;5007362;28;20552;-53
2023/05/21 10:58:31;;;;;;;10.90;6.27;;;27.40;99.90;;;;;;5010938;28;20494;-53
2023/05/21 11:00:59;;;;;;;6.90;6.20;;;27.40;99.90;;;;;;5010534;28;20550;-53
2023/05/21 11:03:28;;;;;;;7.00;5.90;;;26.90;99.90;;;;;;5011997;28;20583;-53
2023/05/21 11:05:56;;;;;;;10.93;6.70;;;26.30;99.90;;;;;;5011829;28;20539;-53
2023/05/21 11:08:23;;;;;;;6.77;5.53;;;26.50;99.90;;;;;;5013176;28;20451;-51
2023/05/21 11:10:54;;;;;;;6.70;6.10;;;26.10;99.90;;;;;;5008123;28;20468;-52
2023/05/21 11:13:22;;;;;;;8.73;6.53;;;25.60;99.90;;;;;;5010656;28;20807;-52
2023/05/21 11:16:15;;;;;;;7.47;6.67;;;25.70;99.90;;;;;;5008880;28;20463;-53
2023/05/21 11:19:02;;;;;;;12.90;6.43;;;25.70;99.90;;;;;;5007723;28;20969;-51
2023/05/21 11:21:30;;;;;;;12.80;6.33;;;25.90;99.90;;;;;;5011406;28;20450;-51
2023/05/21 11:24:01;;;;;;;8.43;6.13;;;25.90;99.90;;;;;;5012287;28;20510;-53
2023/05/21 11:26:29;;;;;;;17.93;6.53;;;26.10;99.90;;;;;;5009241;28;20498;-51
2023/05/21 11:29:08;;;;;;;7.67;6.07;;;26.50;99.90;;;;;;5011111;28;20456;-51
2023/05/21 11:31:37;;;;;;;12.53;6.90;;;26.50;99.90;;;;;;5008232;28;20463;-52
2023/05/21 11:34:18;;;;;;;8.87;6.23;;;27.30;99.90;;;;;;5009834;28;20530;-51
2023/05/21 11:36:45;;;;;;;6.50;5.90;;;27.30;99.90;;;;;;5011839;28;21056;-52
2023/05/21 11:39:14;;;;;;;14.97;6.00;;;27.50;99.90;;;;;;5012132;28;21058;-51
2023/05/21 11:41:57;;;;;;;8.03;5.70;;;27.50;99.90;;;;;;5012057;28;20452;-51
2023/05/21 11:44:38;;;;;;;9.13;5.97;;;27.20;99.90;;;;;;5009642;28;20914;-51
2023/05/21 11:47:05;;;;;;;6.50;5.90;;;27.30;99.90;;;;;;5000163;28;20857;-51
2023/05/21 11:49:34;;;;;;;7.60;5.63;;;27.70;99.90;;;;;;4990984;28;20520;-52
2023/05/21 11:52:01;;;;;;;6.70;6.03;;;27.80;99.90;;;;;;4991399;28;20539;-52
2023/05/21 11:54:28;;;;;;;8.93;7.13;;;27.90;99.90;;;;;;5000339;28;20548;-51
2023/05/21 11:56:54;;;;;;;11.00;5.83;;;27.80;99.90;;;;;;5011180;28;20497;-52
2023/05/21 11:59:21;;;;;;;5.67;5.27;;;27.10;99.90;;;;;;5010393;28;20605;-52
2023/05/21 12:01:47;;;;;;;7.57;5.40;;;27.50;99.90;;;;;;5011001;28;20551;-53
2023/05/21 12:04:15;;;;;;;9.70;5.73;;;27.30;99.90;;;;;;5005894;28;21068;-52
2023/05/21 12:06:43;;;;;;;6.30;5.70;;;27.90;99.90;;;;;;5009855;28;21038;-52
2023/05/21 12:09:10;;;;;;;9.97;5.93;;;26.90;99.90;;;;;;5009788;28;20544;-52
2023/05/21 12:11:40;;;;;;;10.03;5.83;;;27.30;99.90;;;;;;5012242;28;20483;-51
2023/05/21 12:14:08;;;;;;;10.77;6.27;;;26.90;99.90;;;;;;5009457;28;20590;-50
2023/05/21 12:16:35;;;;;;;6.07;5.57;;;26.80;99.90;;;;;;5011763;28;20479;-52
2023/05/21 12:19:02;;;;;;;8.37;5.07;;;26.70;99.90;;;;;;5009696;28;20845;-52
2023/05/21 12:21:30;;;;;;;6.07;5.50;;;26.30;99.90;;;;;;5015146;28;20506;-53
2023/05/21 12:23:58;;;;;;;14.67;5.70;;;26.20;99.90;;;;;;5012288;28;20899;-52
2023/05/21 12:26:25;;;;;;;7.60;4.67;;;26.20;99.90;;;;;;4992494;28;21008;-51
2023/05/21 12:28:53;;;;;;;8.97;4.43;;;26.00;99.90;;;;;;5011507;28;20993;-52
2023/05/21 12:31:20;;;;;;;6.60;5.00;;;26.00;99.90;;;;;;5009740;28;20542;-51
2023/05/21 12:33:48;;;;;;;6.70;4.80;;;26.30;99.90;;;;;;5011372;28;20436;-52
2023/05/21 12:36:22;;;;;;;6.00;4.83;;;26.50;99.90;;;;;;5009244;28;20571;-52
2023/05/21 12:38:50;;;;;;;7.17;4.13;;;27.30;99.90;;;;;;5015851;28;20443;-52